Time;durP1;ratioP1;P1;durP2;ratioP2;P2;SDS_P1;SDS_P2;PMS_P1;PMS_P2;Temp;Humidity;BMP_temperature;BMP_pressure;BME280_temperature;BME280_humidity;BME280_pressure;Samples;Min_cycle;Max_cycle;Signal;HPM_P1;HPM_P2
2023/08/04 00:03:19;;;;;;;2.67;2.17;;;;;;;;;;9936698;29;20107;-85
2023/08/04 00:08:21;;;;;;;4.47;2.03;;;;;;;;;;9936859;29;20030;-84
2023/08/04 00:13:22;;;;;;;3.85;2.20;;;;;;;;;;9936770;29;20156;-86
2023/08/04 00:18:23;;;;;;;6.55;2.78;;;;;;;;;;9936522;29;20128;-84
2023/08/04 00:23:23;;;;;;;4.40;2.65;;;;;;;;;;9936626;29;20180;-85
2023/08/04 00:28:25;;;;;;;5.22;2.20;;;;;;;;;;9936412;29;20133;-83
2023/08/04 00:33:26;;;;;;;7.45;2.50;;;;;;;;;;9936280;29;20058;-84
2023/08/04 00:38:27;;;;;;;4.88;2.13;;;;;;;;;;9936481;29;20051;-86
2023/08/04 00:43:28;;;;;;;5.18;2.03;;;;;;;;;;9935375;29;20047;-83
2023/08/04 00:48:29;;;;;;;3.75;2.25;;;;;;;;;;9934089;29;20791;-84
2023/08/04 00:53:30;;;;;;;4.57;2.17;;;;;;;;;;9935602;29;20839;-85
2023/08/04 00:58:33;;;;;;;4.65;2.28;;;;;;;;;;9933644;29;20079;-84
2023/08/04 01:03:34;;;;;;;6.13;2.33;;;;;;;;;;9934507;29;20070;-84
2023/08/04 01:08:35;;;;;;;3.72;1.80;;;;;;;;;;9935053;29;20408;-84
2023/08/04 01:13:39;;;;;;;3.03;1.70;;;;;;;;;;9934381;29;20058;-84
2023/08/04 01:18:40;;;;;;;5.45;1.95;;;;;;;;;;9917491;29;20389;-85
2023/08/04 01:23:41;;;;;;;4.95;2.38;;;;;;;;;;9934261;29;20047;-83
2023/08/04 01:28:43;;;;;;;9.00;2.40;;;;;;;;;;9934092;29;20131;-83
2023/08/04 01:33:44;;;;;;;4.43;2.40;;;;;;;;;;9934096;29;20079;-83
2023/08/04 01:38:45;;;;;;;9.55;3.20;;;;;;;;;;9933836;29;20123;-83
2023/08/04 01:43:46;;;;;;;8.05;3.13;;;;;;;;;;9932754;29;20103;-84
2023/08/04 01:48:47;;;;;;;9.07;3.70;;;;;;;;;;9934767;29;20051;-83
2023/08/04 01:53:48;;;;;;;5.85;3.42;;;;;;;;;;9931977;29;20129;-85
2023/08/04 01:58:52;;;;;;;5.60;3.42;;;;;;;;;;9932949;29;20039;-83
2023/08/04 02:03:53;;;;;;;6.43;3.42;;;;;;;;;;9933354;29;20047;-83
2023/08/04 02:08:54;;;;;;;5.65;3.33;;;;;;;;;;9933097;29;20813;-84
2023/08/04 02:13:55;;;;;;;11.27;3.40;;;;;;;;;;9933439;29;20042;-83
2023/08/04 02:19:11;;;;;;;6.07;3.13;;;;;;;;;;9938612;29;20047;-83
2023/08/04 02:24:12;;;;;;;8.23;3.45;;;;;;;;;;9940666;29;20035;-84
2023/08/04 02:29:13;;;;;;;7.35;3.67;;;;;;;;;;9941087;29;20491;-83
2023/08/04 02:34:14;;;;;;;7.57;3.65;;;;;;;;;;9937298;29;20061;-83
2023/08/04 02:39:15;;;;;;;5.63;3.03;;;;;;;;;;9938796;29;20192;-83
2023/08/04 02:44:16;;;;;;;5.45;2.95;;;;;;;;;;9939102;29;20112;-84
2023/08/04 02:49:17;;;;;;;5.45;3.10;;;;;;;;;;9939195;29;20027;-85
2023/08/04 02:54:18;;;;;;;7.15;2.67;;;;;;;;;;9938822;29;20045;-85
2023/08/04 02:59:19;;;;;;;4.72;3.08;;;;;;;;;;9939833;29;20049;-83
2023/08/04 03:04:20;;;;;;;3.75;2.13;;;;;;;;;;9939254;29;20781;-84
2023/08/04 03:09:21;;;;;;;5.97;2.80;;;;;;;;;;9938132;29;20106;-83
2023/08/04 03:14:22;;;;;;;9.88;3.17;;;;;;;;;;9938275;29;20031;-84
2023/08/04 03:19:23;;;;;;;8.48;3.35;;;;;;;;;;9939414;29;20050;-82
2023/08/04 03:24:24;;;;;;;10.30;4.50;;;;;;;;;;9938428;29;20050;-84
2023/08/04 03:29:25;;;;;;;9.07;3.83;;;;;;;;;;9937373;29;20126;-84
2023/08/04 03:34:26;;;;;;;6.88;2.30;;;;;;;;;;9937195;29;20038;-84
2023/08/04 03:39:28;;;;;;;7.88;2.90;;;;;;;;;;9938126;29;20054;-84
2023/08/04 03:44:29;;;;;;;7.43;2.72;;;;;;;;;;9919907;29;20159;-84
2023/08/04 03:49:30;;;;;;;5.88;2.78;;;;;;;;;;9916514;29;20438;-85
2023/08/04 03:54:31;;;;;;;5.30;2.90;;;;;;;;;;9900115;29;20050;-85
2023/08/04 03:59:32;;;;;;;5.75;3.72;;;;;;;;;;9903571;29;20042;-84
2023/08/04 04:04:33;;;;;;;4.70;2.55;;;;;;;;;;9899700;29;20038;-85
2023/08/04 04:09:34;;;;;;;4.45;2.30;;;;;;;;;;9901746;29;20671;-85
2023/08/04 04:14:35;;;;;;;5.63;2.80;;;;;;;;;;9903077;29;20067;-85
2023/08/04 04:19:36;;;;;;;9.70;3.42;;;;;;;;;;9898032;29;20131;-84
2023/08/04 04:24:37;;;;;;;4.53;2.22;;;;;;;;;;9898229;29;20046;-85
2023/08/04 04:29:38;;;;;;;4.07;2.40;;;;;;;;;;9904577;29;20839;-86
2023/08/04 04:34:39;;;;;;;9.98;2.85;;;;;;;;;;9904020;29;20058;-85
2023/08/04 04:39:40;;;;;;;7.38;2.58;;;;;;;;;;9896022;29;20042;-85
2023/08/04 04:44:41;;;;;;;6.40;2.83;;;;;;;;;;9909346;29;20459;-85
2023/08/04 04:49:41;;;;;;;8.02;3.60;;;;;;;;;;9971227;29;20129;-86
2023/08/04 04:54:43;;;;;;;9.35;4.15;;;;;;;;;;9973094;29;20084;-86
2023/08/04 04:59:44;;;;;;;7.93;3.45;;;;;;;;;;9972812;29;20046;-86
2023/08/04 05:04:45;;;;;;;4.45;2.55;;;;;;;;;;9959174;29;20419;-85
2023/08/04 05:09:46;;;;;;;8.88;3.25;;;;;;;;;;9969885;29;20042;-84
2023/08/04 05:14:47;;;;;;;6.63;2.60;;;;;;;;;;9973037;29;20031;-84
2023/08/04 05:19:48;;;;;;;7.88;2.53;;;;;;;;;;9956095;29;20407;-83
2023/08/04 05:24:49;;;;;;;5.20;2.42;;;;;;;;;;9971771;29;20048;-84
2023/08/04 05:29:50;;;;;;;5.57;2.40;;;;;;;;;;9971097;29;20038;-84
2023/08/04 05:34:52;;;;;;;6.82;2.63;;;;;;;;;;9955561;29;20050;-85
2023/08/04 05:39:53;;;;;;;9.13;3.17;;;;;;;;;;9970007;29;20032;-83
2023/08/04 05:44:54;;;;;;;9.43;3.35;;;;;;;;;;9966488;29;20517;-84
2023/08/04 05:49:55;;;;;;;6.15;3.25;;;;;;;;;;9961549;29;20034;-86
2023/08/04 05:54:56;;;;;;;6.57;3.30;;;;;;;;;;9971424;29;20049;-85
2023/08/04 05:59:57;;;;;;;5.43;2.35;;;;;;;;;;9972006;29;20474;-85
2023/08/04 06:04:58;;;;;;;6.72;2.75;;;;;;;;;;9962640;29;20052;-86
2023/08/04 06:09:59;;;;;;;5.13;3.13;;;;;;;;;;9958725;29;20026;-86
2023/08/04 06:15:00;;;;;;;5.60;3.05;;;;;;;;;;9971439;29;20046;-87
2023/08/04 06:20:01;;;;;;;7.25;3.42;;;;;;;;;;9969451;29;20034;-85
2023/08/04 06:25:06;;;;;;;7.72;3.00;;;;;;;;;;9971370;29;20030;-86
2023/08/04 06:30:07;;;;;;;6.30;2.90;;;;;;;;;;9969011;29;20566;-86
2023/08/04 06:35:08;;;;;;;10.32;3.22;;;;;;;;;;9969131;29;20047;-86
2023/08/04 06:40:10;;;;;;;7.90;2.53;;;;;;;;;;9971025;29;20159;-86
2023/08/04 06:45:11;;;;;;;8.52;2.72;;;;;;;;;;9970568;29;20058;-86
2023/08/04 06:50:12;;;;;;;5.95;2.33;;;;;;;;;;9970588;29;20045;-87
2023/08/04 06:55:13;;;;;;;4.40;1.90;;;;;;;;;;9969138;29;20034;-85
2023/08/04 07:00:14;;;;;;;5.80;2.15;;;;;;;;;;9970622;29;20441;-84
2023/08/04 07:05:16;;;;;;;6.32;2.42;;;;;;;;;;9976711;29;20030;-85
2023/08/04 07:10:17;;;;;;;5.65;2.13;;;;;;;;;;9965603;29;20408;-84
2023/08/04 07:15:18;;;;;;;5.63;2.70;;;;;;;;;;9972867;29;20044;-84
2023/08/04 07:20:19;;;;;;;7.72;2.22;;;;;;;;;;9974134;29;20041;-85
2023/08/04 07:25:20;;;;;;;8.13;2.10;;;;;;;;;;9973336;29;20034;-84
2023/08/04 07:30:21;;;;;;;3.70;2.40;;;;;;;;;;9975561;29;20034;-84
2023/08/04 07:35:22;;;;;;;5.75;2.03;;;;;;;;;;9974780;29;20373;-86
2023/08/04 07:40:23;;;;;;;6.80;2.20;;;;;;;;;;9974012;29;20902;-86
2023/08/04 07:45:24;;;;;;;5.47;2.45;;;;;;;;;;9972956;29;20127;-84
2023/08/04 07:50:25;;;;;;;7.97;2.13;;;;;;;;;;9973280;29;20045;-85
2023/08/04 07:55:26;;;;;;;8.23;2.72;;;;;;;;;;9973335;29;20402;-85
2023/08/04 08:00:27;;;;;;;7.82;2.17;;;;;;;;;;9973477;29;20049;-86
2023/08/04 08:05:28;;;;;;;23.05;7.22;;;;;;;;;;9972157;29;20042;-86
2023/08/04 08:10:29;;;;;;;5.45;2.47;;;;;;;;;;10018595;24;20070;-85
2023/08/04 08:15:32;;;;;;;4.88;2.17;;;;;;;;;;10016155;29;20033;-85
2023/08/04 08:20:33;;;;;;;6.05;2.58;;;;;;;;;;10000317;29;20120;-86
2023/08/04 08:25:35;;;;;;;6.68;1.63;;;;;;;;;;9986357;29;20034;-87
2023/08/04 08:30:36;;;;;;;6.10;1.58;;;;;;;;;;9996609;29;20072;-84
2023/08/04 08:35:37;;;;;;;5.90;1.98;;;;;;;;;;10003558;29;20034;-85
2023/08/04 08:40:38;;;;;;;3.45;1.73;;;;;;;;;;10002507;29;20110;-85
2023/08/04 08:45:40;;;;;;;8.50;2.70;;;;;;;;;;9990676;29;20034;-86
2023/08/04 08:50:42;;;;;;;5.05;1.73;;;;;;;;;;10004218;29;20045;-86
2023/08/04 08:55:44;;;;;;;3.78;1.42;;;;;;;;;;9994401;29;20061;-88
2023/08/04 09:00:48;;;;;;;2.70;1.27;;;;;;;;;;10003341;29;20478;-86
2023/08/04 09:05:49;;;;;;;3.60;1.60;;;;;;;;;;9996300;29;20029;-84
2023/08/04 09:10:50;;;;;;;4.35;1.42;;;;;;;;;;9998234;29;20115;-85
2023/08/04 09:15:53;;;;;;;3.10;1.45;;;;;;;;;;10006686;29;20737;-85
2023/08/04 09:20:58;;;;;;;4.63;1.80;;;;;;;;;;10002074;29;20038;-84
2023/08/04 09:25:59;;;;;;;5.53;2.08;;;;;;;;;;9993152;29;20117;-84
2023/08/04 09:31:08;;;;;;;2.88;1.63;;;;;;;;;;9992459;29;20048;-84
2023/08/04 09:36:10;;;;;;;4.35;1.80;;;;;;;;;;10000683;29;20061;-86
2023/08/04 09:41:12;;;;;;;3.42;1.60;;;;;;;;;;9999190;29;20038;-86
2023/08/04 09:46:13;;;;;;;2.20;1.27;;;;;;;;;;10009419;29;20025;-84
2023/08/04 09:51:16;;;;;;;5.28;2.10;;;;;;;;;;10008316;29;20037;-86
2023/08/04 09:56:18;;;;;;;3.92;1.30;;;;;;;;;;9991818;29;20049;-85
2023/08/04 10:01:19;;;;;;;6.38;2.67;;;;;;;;;;10008881;29;20029;-86
2023/08/04 10:06:24;;;;;;;2.50;1.70;;;;;;;;;;10005875;29;20030;-85
2023/08/04 10:11:25;;;;;;;4.05;1.50;;;;;;;;;;9984520;29;20080;-84
2023/08/04 10:16:28;;;;;;;1.73;1.10;;;;;;;;;;9982024;29;20042;-85
2023/08/04 10:21:39;;;;;;;2.80;1.30;;;;;;;;;;9992243;29;20046;-85
2023/08/04 10:26:47;;;;;;;4.00;1.25;;;;;;;;;;10005154;29;20120;-83
2023/08/04 10:31:55;;;;;;;5.35;1.73;;;;;;;;;;9994731;29;20065;-82
2023/08/04 10:37:04;;;;;;;3.40;1.30;;;;;;;;;;10007396;29;20110;-83
2023/08/04 10:42:26;;;;;;;4.78;1.30;;;;;;;;;;10009445;29;20033;-85
2023/08/04 10:47:47;;;;;;;3.70;1.42;;;;;;;;;;10010958;29;20038;-86
2023/08/04 10:52:48;;;;;;;4.45;1.77;;;;;;;;;;9992368;29;20118;-85
2023/08/04 10:57:53;;;;;;;3.40;1.85;;;;;;;;;;9997216;29;20102;-87
2023/08/04 11:02:54;;;;;;;2.80;1.40;;;;;;;;;;10014527;29;20565;-83
2023/08/04 11:07:55;;;;;;;3.70;1.40;;;;;;;;;;10013074;29;20514;-84
2023/08/04 11:12:56;;;;;;;4.05;1.70;;;;;;;;;;9981110;29;20029;-83
2023/08/04 11:17:57;;;;;;;3.25;1.80;;;;;;;;;;9996241;29;20514;-87
2023/08/04 11:23:00;;;;;;;3.05;1.48;;;;;;;;;;9996924;29;20034;-84
2023/08/04 11:28:02;;;;;;;3.60;1.67;;;;;;;;;;10003455;29;20519;-85
2023/08/04 11:33:04;;;;;;;5.22;1.65;;;;;;;;;;9993714;29;20109;-84
2023/08/04 11:38:05;;;;;;;4.63;2.00;;;;;;;;;;9984820;29;20179;-83
2023/08/04 11:43:06;;;;;;;4.25;1.50;;;;;;;;;;9996256;29;20090;-84
2023/08/04 11:48:07;;;;;;;1.80;1.40;;;;;;;;;;9989241;29;20073;-84
2023/08/04 11:53:08;;;;;;;3.40;1.40;;;;;;;;;;10013850;29;20049;-84
2023/08/04 11:58:09;;;;;;;10.80;1.50;;;;;;;;;;10009519;29;20498;-86
2023/08/04 12:03:10;;;;;;;2.60;1.73;;;;;;;;;;9991147;29;20029;-84
2023/08/04 12:08:15;;;;;;;4.65;1.70;;;;;;;;;;9994693;29;20069;-84
2023/08/04 12:13:35;;;;;;;7.63;1.98;;;;;;;;;;9978183;29;20038;-86
2023/08/04 12:18:36;;;;;;;2.67;1.80;;;;;;;;;;10008999;29;20057;-84
2023/08/04 12:23:37;;;;;;;2.85;2.15;;;;;;;;;;10008181;29;20502;-83
2023/08/04 12:28:38;;;;;;;4.93;2.28;;;;;;;;;;9990006;29;20039;-83
2023/08/04 12:33:39;;;;;;;6.13;2.00;;;;;;;;;;9993273;29;20446;-85
2023/08/04 12:38:40;;;;;;;6.68;2.20;;;;;;;;;;9979043;29;20050;-83
2023/08/04 12:43:41;;;;;;;3.92;2.30;;;;;;;;;;9993542;29;20552;-83
2023/08/04 12:48:42;;;;;;;4.93;2.25;;;;;;;;;;10002512;29;20051;-84
2023/08/04 12:53:44;;;;;;;4.38;2.25;;;;;;;;;;10002389;29;20042;-85
2023/08/04 12:58:45;;;;;;;3.42;2.13;;;;;;;;;;9995174;29;20038;-85
2023/08/04 13:03:46;;;;;;;4.60;2.80;;;;;;;;;;10003210;29;20042;-87
2023/08/04 13:14:39;;;;;;;7.00;2.50;;;;;;;;;;9979561;29;20046;-83
2023/08/04 13:19:40;;;;;;;5.63;2.30;;;;;;;;;;9990916;29;20125;-86
2023/08/04 13:30:20;;;;;;;5.88;2.03;;;;;;;;;;9984010;29;20026;-84
2023/08/04 13:35:21;;;;;;;4.18;2.50;;;;;;;;;;9984950;29;20084;-86
2023/08/04 13:41:00;;;;;;;5.95;2.38;;;;;;;;;;10005825;29;20814;-84
2023/08/04 13:51:43;;;;;;;4.03;2.80;;;;;;;;;;9980686;29;20042;-87
2023/08/04 13:56:47;;;;;;;7.22;2.97;;;;;;;;;;9978731;29;20503;-90
2023/08/04 14:01:52;;;;;;;7.72;3.80;;;;;;;;;;9980239;29;20065;-85
2023/08/04 14:06:54;;;;;;;5.68;2.40;;;;;;;;;;9983662;29;20106;-85
2023/08/04 14:12:13;;;;;;;5.97;3.05;;;;;;;;;;9979254;29;20078;-85
2023/08/04 14:17:26;;;;;;;5.53;2.22;;;;;;;;;;9971167;29;20050;-85
2023/08/04 14:33:33;;;;;;;4.93;2.45;;;;;;;;;;10006767;29;20034;-87
2023/08/04 14:38:34;;;;;;;5.22;2.75;;;;;;;;;;9982295;29;20038;-86
2023/08/04 14:49:17;;;;;;;3.78;2.30;;;;;;;;;;9985634;29;20048;-87
2023/08/04 14:54:34;;;;;;;4.22;2.42;;;;;;;;;;10005734;29;20044;-87
2023/08/04 14:59:35;;;;;;;3.67;2.45;;;;;;;;;;9975360;29;20074;-88
2023/08/04 15:04:36;;;;;;;4.90;2.40;;;;;;;;;;9987793;29;20041;-86
2023/08/04 15:09:37;;;;;;;4.05;2.60;;;;;;;;;;9988557;29;20105;-88
2023/08/04 15:14:39;;;;;;;6.22;2.95;;;;;;;;;;9968096;29;20050;-87
2023/08/04 15:25:36;;;;;;;10.35;3.08;;;;;;;;;;10009497;29;20048;-86
2023/08/04 15:31:01;;;;;;;7.00;2.97;;;;;;;;;;9990871;29;20033;-86
2023/08/04 15:47:46;;;;;;;5.15;1.85;;;;;;;;;;9999046;29;20033;-87
2023/08/04 15:52:47;;;;;;;6.00;2.50;;;;;;;;;;9995143;29;20037;-87
2023/08/04 15:57:48;;;;;;;5.18;2.40;;;;;;;;;;10003744;29;20522;-87
2023/08/04 16:03:03;;;;;;;7.53;2.50;;;;;;;;;;9979200;29;20114;-87
2023/08/04 16:08:07;;;;;;;5.07;2.97;;;;;;;;;;9976939;29;20062;-87
2023/08/04 16:13:08;;;;;;;5.78;2.40;;;;;;;;;;9981001;29;20476;-86
2023/08/04 16:18:09;;;;;;;4.68;2.60;;;;;;;;;;9969313;29;20517;-87
2023/08/04 16:23:10;;;;;;;7.50;3.17;;;;;;;;;;9976664;29;20041;-86
2023/08/04 16:28:11;;;;;;;5.43;3.15;;;;;;;;;;10000901;29;20042;-84
2023/08/04 16:33:12;;;;;;;5.53;3.15;;;;;;;;;;9980817;29;20413;-86
2023/08/04 16:38:14;;;;;;;8.52;3.85;;;;;;;;;;9984774;29;20128;-86
2023/08/04 16:43:15;;;;;;;5.95;3.40;;;;;;;;;;9999419;29;20042;-87
2023/08/04 16:48:36;;;;;;;7.47;3.30;;;;;;;;;;9975450;29;20041;-87
2023/08/04 16:53:37;;;;;;;5.85;2.70;;;;;;;;;;9961016;29;20046;-86
2023/08/04 17:04:17;;;;;;;6.22;3.00;;;;;;;;;;10004102;29;20045;-87
2023/08/04 17:09:18;;;;;;;5.10;2.42;;;;;;;;;;9991168;29;20057;-86
2023/08/04 17:14:19;;;;;;;4.38;2.75;;;;;;;;;;9978853;29;20026;-85
2023/08/04 17:19:20;;;;;;;7.38;3.20;;;;;;;;;;9986755;29;20647;-84
2023/08/04 17:24:22;;;;;;;6.50;3.25;;;;;;;;;;9996122;29;20048;-85
2023/08/04 17:29:29;;;;;;;5.75;2.53;;;;;;;;;;9985195;29;20038;-85
2023/08/04 17:34:30;;;;;;;6.57;3.00;;;;;;;;;;9984623;29;20030;-85
2023/08/04 17:39:31;;;;;;;5.18;2.97;;;;;;;;;;9969700;29;20127;-86
2023/08/04 17:44:32;;;;;;;6.60;3.67;;;;;;;;;;9980761;29;20037;-85
2023/08/04 17:49:40;;;;;;;6.78;3.42;;;;;;;;;;9972840;29;20569;-84
2023/08/04 17:54:41;;;;;;;5.70;3.17;;;;;;;;;;10005361;29;20046;-85
2023/08/04 17:59:42;;;;;;;6.95;3.50;;;;;;;;;;9991465;29;20050;-86
2023/08/04 18:04:56;;;;;;;4.82;3.22;;;;;;;;;;9978553;29;20027;-88
2023/08/04 18:09:57;;;;;;;9.48;4.22;;;;;;;;;;9975687;29;20057;-86
2023/08/04 18:14:58;;;;;;;7.78;3.60;;;;;;;;;;9986583;29;20458;-85
2023/08/04 18:19:59;;;;;;;7.28;3.58;;;;;;;;;;9973436;29;20501;-86
2023/08/04 18:25:00;;;;;;;6.75;3.60;;;;;;;;;;9994063;29;20035;-85
2023/08/04 18:30:01;;;;;;;6.05;3.60;;;;;;;;;;9977151;29;20501;-85
2023/08/04 18:35:05;;;;;;;7.03;3.60;;;;;;;;;;9972311;29;20026;-84
2023/08/04 18:46:03;;;;;;;5.45;3.65;;;;;;;;;;9997002;29;20038;-84
2023/08/04 18:51:06;;;;;;;6.88;4.10;;;;;;;;;;9979224;29;20034;-83
2023/08/04 18:56:39;;;;;;;6.85;3.78;;;;;;;;;;9988597;29;20115;-83
2023/08/04 19:01:46;;;;;;;10.13;4.60;;;;;;;;;;9983305;29;20037;-85
2023/08/04 19:06:47;;;;;;;7.18;4.22;;;;;;;;;;9983238;29;20026;-84
2023/08/04 19:17:28;;;;;;;9.38;5.47;;;;;;;;;;9986162;29;20099;-85
2023/08/04 19:28:42;;;;;;;8.20;5.53;;;;;;;;;;9958709;29;20042;-85
2023/08/04 19:50:46;;;;;;;11.07;5.85;;;;;;;;;;9995208;29;20146;-86
2023/08/04 20:01:26;;;;;;;10.65;5.03;;;;;;;;;;10020572;29;20085;-86
2023/08/04 20:06:27;;;;;;;8.82;4.45;;;;;;;;;;9988781;29;20037;-86
2023/08/04 20:11:28;;;;;;;9.15;4.57;;;;;;;;;;9972576;29;20096;-86
2023/08/04 20:22:09;;;;;;;10.45;5.20;;;;;;;;;;9994613;29;20041;-86
2023/08/04 20:27:10;;;;;;;10.27;5.93;;;;;;;;;;9993793;29;20657;-84
2023/08/04 20:32:11;;;;;;;10.60;5.63;;;;;;;;;;9984165;29;20157;-85
2023/08/04 20:42:53;;;;;;;10.15;5.10;;;;;;;;;;9990128;29;20033;-85
2023/08/04 20:47:57;;;;;;;6.90;4.90;;;;;;;;;;9972544;29;20082;-85
2023/08/04 20:52:58;;;;;;;10.38;5.68;;;;;;;;;;9980133;29;20030;-85
2023/08/04 20:57:59;;;;;;;14.82;7.07;;;;;;;;;;9999265;29;20054;-86
2023/08/04 21:03:00;;;;;;;11.07;6.40;;;;;;;;;;10004489;29;20662;-87
2023/08/04 21:08:01;;;;;;;11.98;7.28;;;;;;;;;;9976749;29;20030;-85
2023/08/04 21:13:05;;;;;;;10.02;6.00;;;;;;;;;;10016611;24;20093;-85
2023/08/04 21:18:06;;;;;;;9.25;6.07;;;;;;;;;;10010013;29;20128;-87
2023/08/04 21:23:07;;;;;;;11.52;5.72;;;;;;;;;;9990322;29;20030;-85
2023/08/04 21:28:08;;;;;;;8.35;4.82;;;;;;;;;;9997153;29;20030;-87
2023/08/04 21:33:10;;;;;;;10.68;5.43;;;;;;;;;;9995268;29;20113;-86
2023/08/04 21:38:11;;;;;;;9.13;5.07;;;;;;;;;;9971311;29;20042;-85
2023/08/04 21:43:12;;;;;;;7.97;4.72;;;;;;;;;;9990451;29;20033;-86
2023/08/04 21:48:13;;;;;;;10.25;5.55;;;;;;;;;;10007898;29;20026;-85
2023/08/04 21:53:14;;;;;;;9.25;5.57;;;;;;;;;;10002324;29;20069;-86
2023/08/04 21:58:15;;;;;;;9.48;5.07;;;;;;;;;;9983699;29;20615;-84
2023/08/04 22:03:16;;;;;;;7.93;5.25;;;;;;;;;;10002933;29;20031;-85
2023/08/04 22:08:17;;;;;;;9.27;5.20;;;;;;;;;;9995316;29;20038;-86
2023/08/04 22:13:18;;;;;;;9.23;4.70;;;;;;;;;;9969893;29;20781;-85
2023/08/04 22:18:19;;;;;;;12.93;5.18;;;;;;;;;;9978519;29;20053;-85
2023/08/04 22:23:20;;;;;;;11.95;5.15;;;;;;;;;;9992873;29;20043;-85
2023/08/04 22:28:22;;;;;;;8.07;5.10;;;;;;;;;;9984853;29;20180;-85
2023/08/04 22:33:23;;;;;;;10.73;5.45;;;;;;;;;;9977608;29;20029;-84
2023/08/04 22:38:24;;;;;;;6.80;4.32;;;;;;;;;;9981593;29;20042;-85
2023/08/04 22:43:26;;;;;;;9.77;5.15;;;;;;;;;;9978468;29;20057;-84
2023/08/04 22:48:27;;;;;;;7.95;4.40;;;;;;;;;;9997918;29;20046;-85
2023/08/04 22:53:28;;;;;;;8.90;4.03;;;;;;;;;;9992105;29;20039;-87
2023/08/04 22:58:29;;;;;;;10.48;5.13;;;;;;;;;;10000585;29;20046;-85
2023/08/04 23:03:30;;;;;;;10.73;5.13;;;;;;;;;;10013197;29;20588;-85
2023/08/04 23:08:31;;;;;;;11.68;4.95;;;;;;;;;;9996198;29;20042;-85
2023/08/04 23:13:32;;;;;;;7.47;4.93;;;;;;;;;;10006910;29;20054;-86
2023/08/04 23:18:33;;;;;;;8.80;5.20;;;;;;;;;;9972324;24;20555;-85
2023/08/04 23:23:34;;;;;;;8.65;5.90;;;;;;;;;;9969403;29;20042;-84
2023/08/04 23:28:35;;;;;;;10.27;6.18;;;;;;;;;;9955758;29;20278;-85
2023/08/04 23:33:36;;;;;;;8.23;5.85;;;;;;;;;;9968809;29;20570;-84
2023/08/04 23:38:37;;;;;;;9.43;5.60;;;;;;;;;;9960633;29;20054;-83
2023/08/04 23:43:38;;;;;;;10.57;5.20;;;;;;;;;;9957656;29;20587;-84
2023/08/04 23:48:39;;;;;;;9.98;5.65;;;;;;;;;;9948944;29;20100;-85
2023/08/04 23:53:40;;;;;;;6.72;4.65;;;;;;;;;;9972239;29;20049;-85
2023/08/04 23:58:41;;;;;;;9.98;4.57;;;;;;;;;;9969861;29;20492;-85
